This is the latest recevied weather packets stored in our database for station/object DK8RG-15. If no packets are shown the sender has not sent any weather packets the latest 10 day(s).
| Time | Temp. | Humidity | Pressure | Rain* | Wind** | Luminosity | Snow |
|---|---|---|---|---|---|---|---|
| 1777976417 | 16.11° C | 77% | 1006.8 hPa | 0 mm | - | - | - |
| 1777975818 | 16.11° C | 77% | 1006.8 hPa | 0 mm | - | - | - |
| 1777975217 | 16.11° C | 76% | 1006.8 hPa | 0 mm | - | - | - |
| 1777974618 | 16.11° C | 76% | 1006.8 hPa | 0 mm | - | - | - |
| 1777974017 | 16.11° C | 76% | 1006.8 hPa | 0 mm | - | - | - |
| 1777973417 | 16.11° C | 77% | 1006.9 hPa | 0 mm | - | - | - |
| 1777972817 | 16.11° C | 77% | 1006.9 hPa | 0 mm | - | - | - |
| 1777972217 | 16.67° C | 77% | 1006.9 hPa | 0 mm | - | - | - |
| 1777971617 | 16.67° C | 76% | 1006.9 hPa | 0 mm | - | - | - |
| 1777971018 | 16.11° C | 78% | 1006.9 hPa | 0 mm | - | - | - |
| 1777970418 | 15.56° C | 78% | 1006.8 hPa | 0 mm | - | - | - |
| 1777969818 | 15° C | 80% | 1006.7 hPa | 0 mm | - | - | - |
| 1777969217 | 15° C | 82% | 1006.8 hPa | 0 mm | - | - | - |
| 1777968617 | 14.44° C | 83% | 1006.7 hPa | 0 mm | - | - | - |
| 1777968017 | 13.89° C | 85% | 1006.7 hPa | 0 mm | - | - | - |
| 1777967418 | 13.89° C | 87% | 1006.6 hPa | 0 mm | - | - | - |
| 1777966819 | 12.78° C | 87% | 1006.6 hPa | 0 mm | - | - | - |
| 1777966219 | 12.78° C | 87% | 1006.6 hPa | 0 mm | - | - | - |
| 1777965619 | 12.78° C | 87% | 1006.7 hPa | 0 mm | - | - | - |
| 1777965019 | 8.33° C | 58% | 1006.3 hPa | 0 mm | - | - | - |
| 1777963219 | 12.22° C | 88% | 1006.7 hPa | 0 mm | - | - | - |
| 1777962619 | 12.22° C | 87% | 1006.7 hPa | 1.02 mm | - | - | - |
| 1777962020 | 12.22° C | 87% | 1006.8 hPa | 1.02 mm | - | - | - |
| 1777961419 | 12.22° C | 87% | 1007.7 hPa | 1.02 mm | - | - | - |
| 1777960818 | 12.22° C | 87% | 1007.7 hPa | 1.02 mm | - | - | - |
* Rain latest hour (hover to see other rain measurements)
** Current wind speed in m/s (hover to see current wind gust speed)